createdAt,value
2019-05-29T00:01:54.224Z,25.60
2019-05-29T00:04:24.605Z,25.70
2019-05-29T00:06:56.109Z,25.70
2019-05-29T00:09:32.816Z,25.70
2019-05-29T00:12:02.807Z,25.70
2019-05-29T00:14:34.532Z,25.80
2019-05-29T00:17:06.310Z,25.80
2019-05-29T00:19:41.053Z,25.90
2019-05-29T00:22:12.714Z,25.90
2019-05-29T00:24:44.396Z,25.90
2019-05-29T00:27:16.161Z,25.90
2019-05-29T00:29:46.770Z,26.00
2019-05-29T00:32:20.008Z,26.00
2019-05-29T00:34:53.905Z,26.10
2019-05-29T00:37:24.978Z,26.10
2019-05-29T00:39:55.467Z,26.10
2019-05-29T00:42:28.685Z,26.10
2019-05-29T00:44:59.221Z,26.20
2019-05-29T00:47:30.485Z,26.20
2019-05-29T00:50:00.997Z,26.20
2019-05-29T00:52:32.940Z,26.20
2019-05-29T00:55:04.067Z,26.20
2019-05-29T00:57:37.189Z,26.20
2019-05-29T01:00:09.050Z,26.30
2019-05-29T01:02:39.535Z,26.40
2019-05-29T01:05:13.850Z,26.40
2019-05-29T01:07:48.093Z,26.40
2019-05-29T01:10:19.040Z,26.50
2019-05-29T01:12:50.554Z,26.60
2019-05-29T01:15:24.022Z,26.60
2019-05-29T01:17:55.686Z,26.60
2019-05-29T01:20:27.170Z,26.70
2019-05-29T01:22:57.776Z,26.70
2019-05-29T01:25:29.303Z,26.80
2019-05-29T01:28:00.803Z,26.80
2019-05-29T01:30:35.248Z,26.90
2019-05-29T01:33:09.816Z,26.90
2019-05-29T01:35:44.089Z,26.90
2019-05-29T01:38:19.190Z,27.00
2019-05-29T01:40:49.501Z,27.00
2019-05-29T01:43:23.469Z,27.00
2019-05-29T01:45:57.529Z,27.10
2019-05-29T01:48:29.470Z,27.10
2019-05-29T01:51:01.131Z,27.10
2019-05-29T01:53:32.750Z,27.20
2019-05-29T01:56:04.091Z,27.20
2019-05-29T01:58:35.797Z,27.20
2019-05-29T02:01:09.088Z,27.20
2019-05-29T02:03:39.408Z,27.30
2019-05-29T02:06:11.098Z,27.40
2019-05-29T02:08:44.498Z,27.50
2019-05-29T02:11:17.045Z,27.50
2019-05-29T02:13:47.654Z,27.60
2019-05-29T02:16:22.664Z,27.70
2019-05-29T02:18:54.264Z,27.70
2019-05-29T02:21:25.619Z,27.80
2019-05-29T02:23:56.093Z,27.80
2019-05-29T02:26:28.021Z,27.90
2019-05-29T02:28:59.311Z,27.90
2019-05-29T02:31:30.668Z,28.00
2019-05-29T02:34:01.958Z,28.10
2019-05-29T02:36:33.674Z,28.10
2019-05-29T02:39:07.090Z,28.20
2019-05-29T02:41:38.720Z,28.30
2019-05-29T02:44:09.327Z,28.30
2019-05-29T02:46:40.637Z,28.40
2019-05-29T02:49:13.689Z,28.50
2019-05-29T02:51:47.007Z,28.50
2019-05-29T02:54:20.190Z,28.60
2019-05-29T02:56:51.633Z,28.70
2019-05-29T02:59:23.435Z,28.80
2019-05-29T03:01:56.064Z,28.90
2019-05-29T03:04:28.216Z,29.00
2019-05-29T03:07:02.068Z,29.20
2019-05-29T03:09:33.130Z,29.30
2019-05-29T03:12:05.074Z,29.40
2019-05-29T03:14:36.139Z,29.50
2019-05-29T03:17:07.698Z,29.50
2019-05-29T03:19:38.950Z,29.50
2019-05-29T03:22:11.082Z,29.70
2019-05-29T03:24:42.457Z,29.80
2019-05-29T03:27:16.807Z,29.90
2019-05-29T03:29:47.905Z,30.00
2019-05-29T03:32:22.085Z,30.00
2019-05-29T03:34:53.865Z,30.10
2019-05-29T03:37:26.166Z,30.20
2019-05-29T03:39:59.656Z,30.30
2019-05-29T03:42:30.396Z,30.30
2019-05-29T03:45:01.716Z,30.40
2019-05-29T03:47:35.131Z,30.40
2019-05-29T03:50:07.040Z,30.50
2019-05-29T03:52:39.081Z,30.60
2019-05-29T03:55:12.199Z,30.70
2019-05-29T03:57:46.289Z,30.80
2019-05-29T04:00:16.811Z,30.90
2019-05-29T04:02:49.879Z,31.00
2019-05-29T04:05:21.554Z,31.00
2019-05-29T04:07:57.561Z,31.00
2019-05-29T04:10:35.453Z,31.10
2019-05-29T04:13:05.815Z,31.20
2019-05-29T04:15:36.995Z,31.30
2019-05-29T04:18:09.076Z,31.30
2019-05-29T04:20:42.151Z,31.30
2019-05-29T04:23:13.745Z,31.40
2019-05-29T04:25:45.016Z,31.40
2019-05-29T04:28:15.303Z,31.50
2019-05-29T04:30:50.689Z,31.70
2019-05-29T04:33:22.557Z,31.90
2019-05-29T04:35:52.834Z,32.10
2019-05-29T04:38:24.736Z,32.20
2019-05-29T04:41:02.643Z,32.30
2019-05-29T04:43:33.450Z,32.30
2019-05-29T04:46:05.816Z,32.40
2019-05-29T04:48:38.254Z,32.40
2019-05-29T04:51:09.002Z,32.50
2019-05-29T04:53:40.831Z,32.50
2019-05-29T04:56:12.693Z,32.40
2019-05-29T04:58:44.615Z,32.30
2019-05-29T05:01:16.198Z,32.20
2019-05-29T05:03:46.625Z,32.20
2019-05-29T05:06:18.140Z,32.20
2019-05-29T05:08:49.802Z,32.10
2019-05-29T05:11:20.276Z,32.20
2019-05-29T05:13:53.475Z,32.30
2019-05-29T05:16:24.734Z,32.40
2019-05-29T05:18:55.019Z,32.50
2019-05-29T05:21:29.844Z,32.60
2019-05-29T05:24:01.515Z,32.70
2019-05-29T05:26:34.103Z,32.80
2019-05-29T05:29:04.973Z,32.90
2019-05-29T05:31:36.411Z,33.00
2019-05-29T05:34:10.630Z,33.10
2019-05-29T05:36:43.427Z,33.20
2019-05-29T05:39:16.300Z,33.20
2019-05-29T05:41:50.027Z,33.30
2019-05-29T05:44:21.926Z,33.40
2019-05-29T05:46:54.377Z,33.40
2019-05-29T05:49:27.027Z,33.50
2019-05-29T05:51:58.793Z,33.60
2019-05-29T05:54:31.272Z,33.70
2019-05-29T05:57:01.946Z,33.80
2019-05-29T05:59:33.612Z,34.00
2019-05-29T06:02:05.278Z,34.10
2019-05-29T06:04:35.856Z,34.10
2019-05-29T06:07:10.247Z,34.30
2019-05-29T06:09:40.634Z,34.40
2019-05-29T06:12:11.553Z,34.50
2019-05-29T06:14:42.984Z,34.50
2019-05-29T06:17:14.486Z,34.50
2019-05-29T06:19:46.078Z,34.50
2019-05-29T06:22:20.604Z,34.50
2019-05-29T06:24:52.168Z,34.60
2019-05-29T06:27:23.922Z,34.60
2019-05-29T06:29:54.227Z,34.60
2019-05-29T06:32:25.850Z,34.60
2019-05-29T06:34:56.045Z,34.60
2019-05-29T06:37:27.750Z,34.60
2019-05-29T06:39:59.211Z,34.70
2019-05-29T06:42:29.647Z,34.70
2019-05-29T06:45:01.168Z,34.60
2019-05-29T06:47:31.495Z,34.50
2019-05-29T06:50:05.453Z,34.50
2019-05-29T06:52:37.380Z,34.40
2019-05-29T06:55:09.174Z,34.20
2019-05-29T06:57:44.363Z,34.00
2019-05-29T07:00:34.075Z,33.80
2019-05-29T07:02:47.051Z,33.60
2019-05-29T07:05:18.639Z,33.50
2019-05-29T07:07:48.980Z,33.40
2019-05-29T07:10:20.670Z,33.30
2019-05-29T07:12:51.818Z,33.20
2019-05-29T07:15:22.193Z,33.20
2019-05-29T07:17:52.703Z,33.10
2019-05-29T07:20:24.625Z,33.00
2019-05-29T07:22:56.774Z,32.90
2019-05-29T07:25:27.332Z,32.70
2019-05-29T07:28:01.897Z,32.60
2019-05-29T07:30:33.291Z,32.40
2019-05-29T07:33:03.648Z,32.30
2019-05-29T07:35:35.054Z,32.30
2019-05-29T07:38:06.541Z,32.30
2019-05-29T07:40:38.404Z,32.30
2019-05-29T07:43:09.290Z,32.40
2019-05-29T07:45:40.673Z,32.50
2019-05-29T07:48:12.386Z,32.60
2019-05-29T07:50:43.966Z,32.80
2019-05-29T07:53:14.812Z,33.00
2019-05-29T07:55:46.763Z,33.20
2019-05-29T07:58:18.247Z,33.30
2019-05-29T08:01:08.961Z,33.50
2019-05-29T08:03:21.411Z,33.50
2019-05-29T08:05:53.389Z,33.60
2019-05-29T08:08:25.002Z,33.80
2019-05-29T08:10:55.200Z,33.80
2019-05-29T08:13:26.639Z,34.00
2019-05-29T08:16:02.921Z,34.10
2019-05-29T08:18:30.855Z,34.20
2019-05-29T08:21:01.181Z,34.40
2019-05-29T08:23:32.661Z,34.40
2019-05-29T08:26:04.354Z,34.50
2019-05-29T08:28:35.886Z,34.70
2019-05-29T08:31:07.540Z,34.80
2019-05-29T08:33:40.803Z,34.90
2019-05-29T08:36:14.923Z,35.00
2019-05-29T08:38:47.404Z,35.00
2019-05-29T08:41:18.956Z,35.20
2019-05-29T08:43:50.806Z,35.10
2019-05-29T08:46:25.154Z,35.00
2019-05-29T08:48:55.465Z,34.90
2019-05-29T08:51:27.084Z,34.70
2019-05-29T08:54:01.350Z,34.60
2019-05-29T08:56:33.091Z,34.50
2019-05-29T08:59:06.505Z,34.30
2019-05-29T09:01:36.734Z,34.20
2019-05-29T09:04:08.709Z,34.00
2019-05-29T09:06:39.097Z,34.00
2019-05-29T09:09:10.410Z,33.90
2019-05-29T09:11:43.009Z,33.80
2019-05-29T09:14:14.936Z,33.80
2019-05-29T09:16:45.484Z,33.70
2019-05-29T09:19:18.869Z,33.70
2019-05-29T09:21:50.930Z,33.60
2019-05-29T09:24:23.063Z,33.60
2019-05-29T09:26:54.682Z,33.60
2019-05-29T09:29:25.582Z,33.60
2019-05-29T09:31:58.490Z,33.60
2019-05-29T09:34:29.605Z,33.60
2019-05-29T09:37:03.039Z,33.60
2019-05-29T09:39:36.503Z,33.60
2019-05-29T09:42:08.096Z,33.60
2019-05-29T09:44:42.324Z,33.60
2019-05-29T09:47:13.780Z,33.70
2019-05-29T09:49:45.621Z,33.70
2019-05-29T09:52:18.280Z,33.70
2019-05-29T09:54:54.685Z,33.70
2019-05-29T09:57:26.226Z,33.70
2019-05-29T10:00:01.537Z,33.60
2019-05-29T10:02:32.584Z,33.60
2019-05-29T10:05:04.133Z,33.60
2019-05-29T10:07:37.812Z,33.60
2019-05-29T10:10:26.964Z,33.60
2019-05-29T10:12:58.112Z,33.60
2019-05-29T10:15:32.407Z,33.60
2019-05-29T10:18:08.268Z,33.60
2019-05-29T10:20:36.974Z,33.50
2019-05-29T10:23:09.093Z,33.50
2019-05-29T10:25:40.718Z,33.50
2019-05-29T10:28:11.219Z,33.40
2019-05-29T10:30:44.466Z,33.40
2019-05-29T10:33:16.036Z,33.40
2019-05-29T10:35:49.663Z,33.40
2019-05-29T10:38:20.165Z,33.30
2019-05-29T10:41:00.436Z,33.30
2019-05-29T10:43:34.275Z,33.20
2019-05-29T10:45:58.225Z,33.10
2019-05-29T10:48:28.450Z,33.10
2019-05-29T10:51:01.842Z,33.10
2019-05-29T10:53:33.415Z,33.10
2019-05-29T10:56:04.828Z,33.00
2019-05-29T10:58:47.947Z,33.00
2019-05-29T11:01:08.042Z,33.00
2019-05-29T11:03:39.419Z,32.90
2019-05-29T11:06:11.340Z,32.90
2019-05-29T11:08:45.796Z,32.90
2019-05-29T11:11:21.686Z,32.80
2019-05-29T11:13:53.422Z,32.70
2019-05-29T11:16:26.625Z,32.60
2019-05-29T11:18:58.441Z,32.40
2019-05-29T11:21:29.779Z,32.30
2019-05-29T11:24:00.194Z,32.10
2019-05-29T11:26:30.382Z,32.00
2019-05-29T11:29:03.483Z,31.80
2019-05-29T11:31:34.866Z,31.70
2019-05-29T11:34:08.288Z,31.50
2019-05-29T11:36:40.009Z,31.40
2019-05-29T11:39:11.490Z,31.20
2019-05-29T11:41:45.550Z,31.10
2019-05-29T11:44:16.957Z,31.00
2019-05-29T11:46:50.019Z,30.90
2019-05-29T11:49:20.182Z,30.80
2019-05-29T11:51:53.618Z,30.70
2019-05-29T11:54:24.370Z,30.70
2019-05-29T11:56:59.186Z,30.60
2019-05-29T11:59:31.287Z,30.60
2019-05-29T12:02:03.358Z,30.50
2019-05-29T12:04:36.897Z,30.40
2019-05-29T12:07:10.826Z,30.30
2019-05-29T12:09:45.342Z,30.20
2019-05-29T12:12:15.847Z,30.20
2019-05-29T12:15:00.494Z,30.10
2019-05-29T12:17:20.419Z,30.10
2019-05-29T12:19:54.008Z,29.80
2019-05-29T12:22:26.878Z,29.40
2019-05-29T12:25:00.770Z,29.10
2019-05-29T12:27:31.221Z,28.80
2019-05-29T12:30:03.169Z,28.70
2019-05-29T12:32:33.956Z,28.60
2019-05-29T12:35:05.612Z,28.40
2019-05-29T12:37:37.393Z,28.30
2019-05-29T12:40:13.617Z,28.20
2019-05-29T12:42:45.096Z,28.20
2019-05-29T12:45:17.008Z,28.10
2019-05-29T12:47:48.455Z,28.10
2019-05-29T12:50:21.937Z,28.10
2019-05-29T12:52:53.490Z,28.20
2019-05-29T12:55:25.384Z,28.30
2019-05-29T12:57:57.932Z,28.40
2019-05-29T13:00:31.865Z,28.40
2019-05-29T13:03:05.186Z,28.40
2019-05-29T13:05:36.759Z,28.40
2019-05-29T13:08:07.656Z,28.40
2019-05-29T13:10:39.038Z,28.30
2019-05-29T13:13:11.380Z,28.30
2019-05-29T13:15:43.031Z,28.30
2019-05-29T13:18:14.313Z,28.30
2019-05-29T13:20:45.494Z,28.20
2019-05-29T13:23:17.465Z,28.20
2019-05-29T13:25:51.748Z,28.20
2019-05-29T13:28:23.489Z,28.20
2019-05-29T13:30:57.712Z,28.20
2019-05-29T13:33:31.216Z,28.20
2019-05-29T13:36:02.521Z,28.20
2019-05-29T13:38:36.232Z,28.20
2019-05-29T13:41:09.555Z,28.20
2019-05-29T13:43:41.094Z,28.20
2019-05-29T13:46:15.256Z,28.20
2019-05-29T13:48:47.011Z,28.10
2019-05-29T13:51:18.781Z,28.10
2019-05-29T13:54:02.615Z,28.10
2019-05-29T13:56:24.430Z,28.10
2019-05-29T13:58:56.161Z,28.00
2019-05-29T14:01:27.899Z,28.00
2019-05-29T14:04:00.150Z,27.90
2019-05-29T14:06:31.728Z,27.80
2019-05-29T14:09:07.401Z,27.80
2019-05-29T14:11:38.684Z,27.70
2019-05-29T14:14:10.928Z,27.70
2019-05-29T14:16:41.760Z,27.70
2019-05-29T14:19:13.417Z,27.70
2019-05-29T14:21:44.937Z,27.70
2019-05-29T14:24:28.255Z,27.70
2019-05-29T14:26:51.184Z,27.50
2019-05-29T14:29:25.357Z,27.50
2019-05-29T14:31:58.521Z,27.40
2019-05-29T14:34:33.042Z,27.30
2019-05-29T14:37:06.313Z,27.20
2019-05-29T14:39:37.662Z,27.10
2019-05-29T14:42:10.093Z,27.10
2019-05-29T14:44:43.544Z,27.00
2019-05-29T14:47:17.262Z,26.90
2019-05-29T14:49:48.959Z,26.90
2019-05-29T14:52:22.052Z,26.80
2019-05-29T14:54:53.345Z,26.70
2019-05-29T14:57:26.255Z,26.70
2019-05-29T14:59:55.636Z,26.70
2019-05-29T15:02:26.887Z,26.60
2019-05-29T15:05:00.468Z,26.70
2019-05-29T15:07:31.943Z,26.60
2019-05-29T15:10:12.620Z,26.60
2019-05-29T15:12:38.226Z,26.70
2019-05-29T15:15:11.391Z,26.70
2019-05-29T15:17:42.794Z,26.80
2019-05-29T15:20:14.443Z,26.80
2019-05-29T15:22:45.750Z,27.00
2019-05-29T15:25:23.486Z,27.00
2019-05-29T15:27:51.705Z,27.00
2019-05-29T15:30:23.795Z,27.10
2019-05-29T15:32:55.392Z,27.10
2019-05-29T15:35:26.773Z,27.10
2019-05-29T15:37:59.847Z,27.10
2019-05-29T15:40:31.561Z,27.10
2019-05-29T15:43:01.933Z,27.10
2019-05-29T15:45:36.887Z,27.10
2019-05-29T15:48:08.964Z,27.00
2019-05-29T15:50:40.299Z,27.00
2019-05-29T15:53:13.143Z,27.00
2019-05-29T15:55:45.246Z,27.00
2019-05-29T15:58:17.946Z,27.00
2019-05-29T16:00:49.868Z,27.10
2019-05-29T16:03:23.364Z,27.10
2019-05-29T16:05:55.158Z,27.10
2019-05-29T16:08:26.786Z,27.20
2019-05-29T16:10:58.345Z,27.20
2019-05-29T16:13:29.680Z,27.20
2019-05-29T16:16:00.129Z,27.20
2019-05-29T16:18:33.531Z,27.20
2019-05-29T16:21:05.287Z,27.20
2019-05-29T16:23:37.028Z,27.20
2019-05-29T16:26:09.022Z,27.20
2019-05-29T16:28:40.577Z,27.20
2019-05-29T16:31:10.827Z,27.20
2019-05-29T16:33:43.396Z,27.20
2019-05-29T16:36:16.412Z,27.20
2019-05-29T16:38:46.418Z,27.10
2019-05-29T16:41:17.949Z,27.10
2019-05-29T16:43:48.754Z,27.10
2019-05-29T16:46:22.375Z,27.10
2019-05-29T16:48:52.362Z,27.10
2019-05-29T16:51:23.083Z,27.10
2019-05-29T16:53:56.566Z,27.00
2019-05-29T16:56:27.684Z,27.00
2019-05-29T16:58:59.205Z,26.90
2019-05-29T17:01:29.758Z,26.80
2019-05-29T17:04:01.143Z,26.70
2019-05-29T17:06:31.350Z,26.60
2019-05-29T17:09:01.776Z,26.60
2019-05-29T17:11:33.150Z,26.50
2019-05-29T17:14:04.715Z,26.40
2019-05-29T17:16:35.745Z,26.40
2019-05-29T17:19:06.322Z,26.30
2019-05-29T17:21:36.777Z,26.40
2019-05-29T17:24:08.352Z,26.30
2019-05-29T17:26:40.390Z,26.30
2019-05-29T17:29:10.540Z,26.30
2019-05-29T17:31:41.952Z,26.40
2019-05-29T17:34:15.284Z,26.40
2019-05-29T17:36:46.607Z,26.50
2019-05-29T17:39:17.376Z,26.50
2019-05-29T17:41:51.142Z,26.50
2019-05-29T17:44:21.430Z,26.60
2019-05-29T17:46:51.898Z,26.50
2019-05-29T17:49:32.994Z,26.40
2019-05-29T17:51:57.839Z,26.40
2019-05-29T17:54:30.914Z,26.40
2019-05-29T17:57:02.150Z,26.30
2019-05-29T17:59:33.737Z,26.30
2019-05-29T18:02:04.292Z,26.20
2019-05-29T18:04:35.459Z,26.20
2019-05-29T18:07:06.874Z,26.20
2019-05-29T18:09:37.449Z,26.20
2019-05-29T18:12:08.396Z,26.20
2019-05-29T18:14:40.342Z,26.20
2019-05-29T18:17:12.896Z,26.10
2019-05-29T18:19:46.687Z,26.10
2019-05-29T18:22:17.530Z,26.00
2019-05-29T18:24:49.003Z,26.00
2019-05-29T18:27:20.277Z,26.00
2019-05-29T18:29:51.480Z,25.90
2019-05-29T18:32:22.414Z,25.90
2019-05-29T18:34:56.502Z,25.90
2019-05-29T18:37:28.355Z,25.90
2019-05-29T18:39:59.994Z,25.90
2019-05-29T18:42:32.779Z,25.90
2019-05-29T18:45:03.387Z,25.90
2019-05-29T18:47:34.844Z,25.90
2019-05-29T18:50:09.076Z,25.90
2019-05-29T18:52:43.034Z,25.90
2019-05-29T18:55:14.893Z,25.90
2019-05-29T18:57:45.420Z,25.90
2019-05-29T19:00:16.946Z,25.90
2019-05-29T19:02:47.405Z,25.80
2019-05-29T19:05:18.752Z,25.80
2019-05-29T19:07:50.060Z,25.80
2019-05-29T19:10:21.975Z,25.80
2019-05-29T19:12:53.993Z,25.80
2019-05-29T19:15:25.937Z,25.80
2019-05-29T19:17:56.303Z,25.80
2019-05-29T19:20:26.841Z,25.70
2019-05-29T19:22:58.114Z,25.70
2019-05-29T19:25:29.029Z,25.80
2019-05-29T19:28:00.538Z,25.90
2019-05-29T19:30:31.106Z,25.90
2019-05-29T19:33:02.706Z,25.90
2019-05-29T19:35:35.830Z,25.90
2019-05-29T19:38:06.246Z,25.90
2019-05-29T19:40:37.451Z,25.90
2019-05-29T19:43:10.244Z,25.90
2019-05-29T19:45:40.793Z,25.90
2019-05-29T19:48:11.968Z,25.90
2019-05-29T19:50:43.532Z,26.00
2019-05-29T19:53:14.905Z,26.00
2019-05-29T19:55:46.849Z,26.00
2019-05-29T19:58:18.264Z,26.00
2019-05-29T20:00:50.068Z,26.00
2019-05-29T20:03:20.786Z,26.00
2019-05-29T20:05:51.193Z,25.90
2019-05-29T20:08:25.336Z,25.90
2019-05-29T20:10:55.767Z,25.90
2019-05-29T20:13:30.145Z,25.90
2019-05-29T20:16:00.829Z,25.80
2019-05-29T20:18:32.010Z,25.80
2019-05-29T20:21:02.279Z,25.70
2019-05-29T20:23:34.550Z,25.70
2019-05-29T20:26:05.092Z,25.70
2019-05-29T20:28:36.416Z,25.70
2019-05-29T20:31:11.563Z,25.70
2019-05-29T20:33:39.893Z,25.70
2019-05-29T20:36:11.045Z,25.70
2019-05-29T20:38:41.489Z,25.70
2019-05-29T20:41:12.803Z,25.70
2019-05-29T20:43:43.153Z,25.70
2019-05-29T20:46:14.570Z,25.70
2019-05-29T20:48:46.183Z,25.70
2019-05-29T20:51:16.922Z,25.70
2019-05-29T20:53:48.803Z,25.70
2019-05-29T20:56:18.886Z,25.70
2019-05-29T20:58:50.909Z,25.80
2019-05-29T21:01:21.433Z,25.80
2019-05-29T21:03:51.822Z,25.90
2019-05-29T21:06:23.169Z,25.90
2019-05-29T21:08:54.827Z,25.80
2019-05-29T21:11:26.274Z,25.80
2019-05-29T21:13:56.406Z,25.80
2019-05-29T21:16:26.890Z,25.80
2019-05-29T21:18:58.348Z,25.80
2019-05-29T21:21:29.770Z,25.70
2019-05-29T21:24:02.519Z,25.70
2019-05-29T21:26:32.722Z,25.70
2019-05-29T21:29:04.001Z,25.70
2019-05-29T21:31:35.502Z,25.70
2019-05-29T21:34:06.011Z,25.70
2019-05-29T21:36:37.992Z,25.70
2019-05-29T21:39:10.161Z,25.80
2019-05-29T21:41:40.701Z,25.80
2019-05-29T21:44:12.042Z,25.80
2019-05-29T21:46:45.051Z,25.80
2019-05-29T21:49:16.614Z,25.80
2019-05-29T21:51:49.707Z,25.70
2019-05-29T21:54:20.250Z,25.80
2019-05-29T21:56:50.711Z,25.80
2019-05-29T21:59:22.758Z,25.80
2019-05-29T22:01:54.172Z,25.80
2019-05-29T22:04:24.702Z,25.80
2019-05-29T22:06:55.946Z,25.80
2019-05-29T22:09:27.572Z,25.80
2019-05-29T22:11:58.561Z,25.80
2019-05-29T22:14:29.978Z,25.80
2019-05-29T22:17:04.217Z,25.70
2019-05-29T22:19:37.354Z,25.70
2019-05-29T22:22:07.754Z,25.70
2019-05-29T22:24:41.045Z,25.70
2019-05-29T22:27:11.380Z,25.70
2019-05-29T22:29:41.954Z,25.70
2019-05-29T22:32:13.352Z,25.70
2019-05-29T22:34:46.388Z,25.70
2019-05-29T22:37:18.354Z,25.80
2019-05-29T22:39:51.369Z,25.80
2019-05-29T22:42:22.949Z,25.70
2019-05-29T22:44:53.618Z,25.80
2019-05-29T22:47:24.403Z,25.80
2019-05-29T22:49:58.015Z,25.80
2019-05-29T22:52:28.315Z,25.80
2019-05-29T22:54:59.927Z,25.80
2019-05-29T22:57:32.041Z,25.90
2019-05-29T23:00:03.971Z,25.90
2019-05-29T23:02:34.432Z,25.80
2019-05-29T23:05:05.524Z,25.90
2019-05-29T23:07:40.927Z,25.90
2019-05-29T23:10:11.431Z,25.80
2019-05-29T23:12:43.341Z,25.80
2019-05-29T23:15:14.881Z,25.90
2019-05-29T23:17:46.434Z,25.90
2019-05-29T23:20:18.398Z,25.80
2019-05-29T23:22:48.870Z,25.80
2019-05-29T23:25:19.249Z,25.90
2019-05-29T23:27:50.670Z,25.80
2019-05-29T23:30:21.992Z,25.90
2019-05-29T23:32:56.827Z,25.90
2019-05-29T23:35:27.646Z,25.90
2019-05-29T23:37:59.157Z,25.90
2019-05-29T23:40:32.707Z,26.00
2019-05-29T23:43:04.261Z,25.90
2019-05-29T23:45:36.092Z,26.00
2019-05-29T23:48:08.001Z,26.00
2019-05-29T23:50:42.323Z,26.00
2019-05-29T23:53:15.867Z,26.10
2019-05-29T23:55:47.700Z,26.00
2019-05-29T23:58:18.008Z,26.10
